Bolivar, PA

2:16 PM EDT on September 19, 2014 (GMT -0400)
Paradise Weather | Change Station
CLOSE
Current Station
Personal Weather Station
Location: Derry, PA
Elevation: 1178 ft
Nearby Weather Stations

Elev 1178 ft 40.33 °N, 79.32 °W | Updated 14 minutes ago

Partly Cloudy
Partly Cloudy
73.2 °F
Feels Like 77 °F
N
0.0
Wind Variable Wind from South
Gusts 6.0 mph

Today
High -- | Low -- °F
--% Chance of Precip.
Yesterday
High -- | Low -- °F
Precip. -- in
7:01 AM 7:18 PM
Waning Crescent, 18% visible
Pressure 30.22 in
Visibility 20.0 miles
Clouds Mostly Cloudy 4000 ft
Heat Index 77 °F
Dew Point 55 °F
Humidity 54%
Rainfall 0.00 in
Snow Depth Not available.
UV 4 out of 12
Pollen 3.70 out of 12
Air Quality Not available.
Flu Activity Not available.
METAR KLBE 191750Z 18006KT 20SM BKN040 22/13 A3022

More Conditions Fewer Conditions

Pressure 30.22 in
Visibility 20.0 miles
Clouds Mostly Cloudy 4000 ft
Heat Index 77 °F
Dew Point 55 °F
Humidity 54%
Rainfall 0.00 in
Snow Depth Not available.
UV 4 out of 12
Pollen 3.70 out of 12
Air Quality Not available.
Flu Activity Not available.
METAR KLBE 191750Z 18006KT 20SM BKN040 22/13 A3022

More Conditions Fewer Conditions

10-Day Weather Forecast

Almanac

Astronomy

Sep. 19, 2014 Rise Set
Actual Time 7:01 AM EDT 7:18 PM EDT
Civil Twilight 6:34 AM EDT 7:46 PM EDT
Nautical Twilight 6:02 AM EDT 8:17 PM EDT
Astronomical Twilight 5:29 AM EDT 8:50 PM EDT
Moon 2:44 AM EDT 4:47 PM EDT
Length of Visible Light 13h 11m
Length of Day
12h 17m
Tomorrow will be 2m 39s shorter.
Waning Crescent, 18% of the Moon is Illuminated
Today
Waning Crescent
Sep 24
New
Oct 1
First Quarter
Oct 8
Full
Oct 15
Last Quarter

Today's Extremes

State Highs State Lows

Community

WunderPhotos

Upload Photos

1,754,678 photos uploaded!

WunderBlogs® & News

Nearby

Snow Depth

Station Depth Elevation
No new snow has been reported.

Earthquake Activity

City Distance Mag. Time & Date
No recent earthquake activity has been reported nearby.
Minimum magnitude displayed is 2.5.

Coastal Water Temperatures

Place Temperature
No Stations Reporting

Nearby Weather Stations